Time;durP1;ratioP1;P1;durP2;ratioP2;P2;SDS_P1;SDS_P2;PMS_P1;PMS_P2;Temp;Humidity;BMP_temperature;BMP_pressure;BME280_temperature;BME280_humidity;BME280_pressure;Samples;Min_cycle;Max_cycle;Signal;HPM_P1;HPM_P2
2023/03/01 00:01:31;;;;;;;6.07;5.57;;;;;;;;;;6220533;28;20101;-79
2023/03/01 00:04:32;;;;;;;11.03;6.63;;;;;;;;;;6218720;28;20021;-79
2023/03/01 00:07:32;;;;;;;9.43;8.70;;;;;;;;;;6223688;28;20050;-79
2023/03/01 00:10:32;;;;;;;8.63;7.90;;;;;;;;;;6220149;28;20057;-78
2023/03/01 00:13:33;;;;;;;15.57;14.53;;;;;;;;;;6219992;28;20029;-78
2023/03/01 00:16:38;;;;;;;25.90;7.00;;;;;;;;;;6220103;28;20077;-78
2023/03/01 00:19:38;;;;;;;17.02;9.23;;;;;;;;;;6220466;28;20029;-78
2023/03/01 00:22:38;;;;;;;6.57;5.93;;;;;;;;;;6219993;28;20010;-78
2023/03/01 00:25:42;;;;;;;9.77;8.73;;;;;;;;;;6219978;28;20017;-78
2023/03/01 00:28:43;;;;;;;2.58;2.47;;;;;;;;;;6220972;28;20032;-78
2023/03/01 00:31:43;;;;;;;6.80;6.00;;;;;;;;;;6236389;28;20049;-78
2023/03/01 00:34:53;;;;;;;5.03;4.72;;;;;;;;;;6219447;28;20017;-78
2023/03/01 00:37:57;;;;;;;5.57;4.75;;;;;;;;;;6220460;28;20261;-78
2023/03/01 00:41:02;;;;;;;3.42;3.15;;;;;;;;;;6219390;28;20022;-78
2023/03/01 00:44:03;;;;;;;8.23;5.97;;;;;;;;;;6216622;28;20022;-79
2023/03/01 00:47:03;;;;;;;10.57;9.77;;;;;;;;;;6222097;28;20510;-78
2023/03/01 00:50:03;;;;;;;20.00;9.87;;;;;;;;;;6218135;28;20108;-79
2023/03/01 00:53:04;;;;;;;8.90;8.47;;;;;;;;;;6221629;28;20092;-79
2023/03/01 00:56:06;;;;;;;31.60;16.60;;;;;;;;;;6222864;28;20093;-79
2023/03/01 00:59:06;;;;;;;8.43;7.75;;;;;;;;;;6228029;28;20528;-80
2023/03/01 01:02:06;;;;;;;23.63;11.50;;;;;;;;;;6211366;28;20026;-79
2023/03/01 01:05:06;;;;;;;5.47;5.10;;;;;;;;;;6227591;28;20440;-79
2023/03/01 01:08:07;;;;;;;15.43;14.17;;;;;;;;;;6242923;28;20028;-80
2023/03/01 01:11:08;;;;;;;13.47;12.47;;;;;;;;;;6226051;28;20025;-79
2023/03/01 01:14:09;;;;;;;;;;;;;;;;;;6221766;28;20032;-80
2023/03/01 01:17:09;;;;;;;16.85;14.63;;;;;;;;;;6218717;28;19913;-80
2023/03/01 01:20:10;;;;;;;5.80;5.53;;;;;;;;;;6237221;28;20375;-80
2023/03/01 01:23:10;;;;;;;32.70;18.20;;;;;;;;;;6204138;28;20018;-81
2023/03/01 01:26:12;;;;;;;21.38;11.23;;;;;;;;;;6226227;28;20264;-80
2023/03/01 01:29:12;;;;;;;14.50;13.05;;;;;;;;;;6226486;28;20018;-81
2023/03/01 01:32:13;;;;;;;7.23;6.67;;;;;;;;;;6236741;28;20022;-80
2023/03/01 01:35:13;;;;;;;18.53;11.53;;;;;;;;;;6224611;28;20534;-81
2023/03/01 01:38:13;;;;;;;33.60;17.37;;;;;;;;;;6224736;28;20010;-80
2023/03/01 01:41:14;;;;;;;18.35;17.00;;;;;;;;;;6233714;28;20030;-81
2023/03/01 01:44:14;;;;;;;6.57;5.97;;;;;;;;;;6209986;28;20265;-81
2023/03/01 01:47:16;;;;;;;14.95;13.88;;;;;;;;;;6221958;28;20053;-79
2023/03/01 01:50:18;;;;;;;10.57;9.60;;;;;;;;;;6222465;28;20356;-82
2023/03/01 01:53:19;;;;;;;16.38;14.75;;;;;;;;;;6220225;28;20125;-81
2023/03/01 01:56:21;;;;;;;5.93;5.57;;;;;;;;;;6226678;28;20116;-82
2023/03/01 01:59:24;;;;;;;8.98;8.38;;;;;;;;;;6214111;28;20017;-81
2023/03/01 02:02:27;;;;;;;20.20;10.90;;;;;;;;;;6232574;28;20487;-80
2023/03/01 02:05:43;;;;;;;18.50;16.67;;;;;;;;;;6237979;28;20440;-79
2023/03/01 02:08:45;;;;;;;20.95;13.25;;;;;;;;;;6233649;28;20021;-80
2023/03/01 02:11:46;;;;;;;19.60;15.10;;;;;;;;;;6242012;28;20075;-80
2023/03/01 02:14:47;;;;;;;9.43;8.73;;;;;;;;;;6208098;28;20041;-79
2023/03/01 02:17:48;;;;;;;7.63;7.17;;;;;;;;;;6229705;28;20383;-79
2023/03/01 02:21:08;;;;;;;10.63;9.68;;;;;;;;;;6239021;28;20033;-80
2023/03/01 02:24:15;;;;;;;3.55;3.45;;;;;;;;;;6212526;28;20586;-80
2023/03/01 02:27:16;;;;;;;23.58;14.50;;;;;;;;;;6224690;28;20025;-79
2023/03/01 02:30:17;;;;;;;16.25;14.77;;;;;;;;;;6215678;28;20494;-80
2023/03/01 02:33:17;;;;;;;11.18;10.55;;;;;;;;;;6239842;28;20020;-80
2023/03/01 02:36:19;;;;;;;14.13;11.10;;;;;;;;;;6230269;28;20495;-80
2023/03/01 02:39:22;;;;;;;7.00;4.60;;;;;;;;;;6236321;28;20049;-79
2023/03/01 02:42:24;;;;;;;6.72;6.07;;;;;;;;;;6239921;28;20087;-80
2023/03/01 02:45:25;;;;;;;16.83;15.35;;;;;;;;;;6229304;28;20033;-80
2023/03/01 02:48:25;;;;;;;4.75;4.50;;;;;;;;;;6211924;28;20018;-79
2023/03/01 02:51:44;;;;;;;6.83;6.40;;;;;;;;;;6209899;28;20116;-80
2023/03/01 02:54:50;;;;;;;11.27;10.38;;;;;;;;;;6229240;28;20045;-80
2023/03/01 02:57:51;;;;;;;3.60;3.47;;;;;;;;;;6206673;28;20081;-79
2023/03/01 03:00:54;;;;;;;9.37;7.57;;;;;;;;;;6233639;28;20017;-79
2023/03/01 03:03:54;;;;;;;15.07;8.93;;;;;;;;;;6236612;28;20349;-80
2023/03/01 03:06:54;;;;;;;18.67;17.25;;;;;;;;;;6205911;28;20014;-80
2023/03/01 03:09:54;;;;;;;12.73;8.97;;;;;;;;;;6236483;28;20030;-79
2023/03/01 03:12:56;;;;;;;12.37;10.20;;;;;;;;;;6226425;28;20069;-80
2023/03/01 03:15:57;;;;;;;6.90;5.40;;;;;;;;;;6220787;28;20527;-80
2023/03/01 03:19:04;;;;;;;3.30;3.20;;;;;;;;;;6224441;28;20061;-79
2023/03/01 03:22:04;;;;;;;8.63;7.90;;;;;;;;;;6202579;28;20030;-80
2023/03/01 03:25:05;;;;;;;8.40;7.67;;;;;;;;;;6208477;28;20053;-79
2023/03/01 03:28:09;;;;;;;5.97;4.38;;;;;;;;;;6236711;28;20013;-79
2023/03/01 03:31:09;;;;;;;3.97;3.78;;;;;;;;;;6204499;28;20030;-80
2023/03/01 03:34:17;;;;;;;3.10;3.00;;;;;;;;;;6230971;28;20025;-80
2023/03/01 03:40:38;;;;;;;4.55;4.35;;;;;;;;;;6227093;28;20017;-80
2023/03/01 03:43:40;;;;;;;8.30;7.80;;;;;;;;;;6226685;28;20029;-80
2023/03/01 03:46:40;;;;;;;34.33;21.77;;;;;;;;;;6220350;28;20032;-80
2023/03/01 03:49:40;;;;;;;23.77;13.70;;;;;;;;;;6227772;28;20025;-80
2023/03/01 03:52:40;;;;;;;9.55;8.63;;;;;;;;;;6221657;28;20500;-80
2023/03/01 03:55:40;;;;;;;20.40;18.77;;;;;;;;;;6239923;28;20022;-79
2023/03/01 03:58:41;;;;;;;11.23;7.33;;;;;;;;;;6240717;28;20013;-80
2023/03/01 04:01:41;;;;;;;11.27;10.30;;;;;;;;;;6235462;28;20438;-80
2023/03/01 04:04:41;;;;;;;5.07;4.88;;;;;;;;;;6234581;28;20013;-80
2023/03/01 04:07:42;;;;;;;18.73;16.83;;;;;;;;;;6203118;28;20025;-80
2023/03/01 04:10:44;;;;;;;12.07;10.93;;;;;;;;;;6238719;28;20028;-80
2023/03/01 04:13:44;;;;;;;12.35;10.43;;;;;;;;;;6240714;28;20027;-80
2023/03/01 04:16:44;;;;;;;6.77;6.30;;;;;;;;;;6237004;28;20468;-80
2023/03/01 04:19:48;;;;;;;1.67;1.63;;;;;;;;;;6224729;28;20032;-80
2023/03/01 04:22:48;;;;;;;9.20;8.70;;;;;;;;;;6229042;28;20021;-80
2023/03/01 04:25:54;;;;;;;5.47;5.17;;;;;;;;;;6234165;28;20018;-80
2023/03/01 04:28:55;;;;;;;18.27;16.77;;;;;;;;;;6224603;28;20025;-79
2023/03/01 04:31:56;;;;;;;8.60;7.87;;;;;;;;;;6232375;28;20022;-80
2023/03/01 04:34:56;;;;;;;3.72;3.47;;;;;;;;;;6213829;28;20677;-79
2023/03/01 04:37:56;;;;;;;8.57;7.88;;;;;;;;;;6244564;28;20013;-80
2023/03/01 04:40:57;;;;;;;2.13;2.07;;;;;;;;;;6237841;28;20025;-80
2023/03/01 04:43:59;;;;;;;12.80;11.67;;;;;;;;;;6240315;28;20471;-80
2023/03/01 04:47:00;;;;;;;7.50;6.97;;;;;;;;;;6213220;28;20018;-80
2023/03/01 04:50:00;;;;;;;6.97;4.93;;;;;;;;;;6220604;28;20036;-80
2023/03/01 04:53:00;;;;;;;25.70;11.68;;;;;;;;;;6222440;28;20076;-81
2023/03/01 04:56:01;;;;;;;6.47;6.10;;;;;;;;;;6230400;28;20025;-81
2023/03/01 04:59:05;;;;;;;10.00;9.47;;;;;;;;;;6229099;28;20028;-80
2023/03/01 05:02:06;;;;;;;5.63;5.32;;;;;;;;;;6228622;28;20030;-79
2023/03/01 05:05:07;;;;;;;7.68;7.28;;;;;;;;;;6219210;28;20499;-80
2023/03/01 05:08:07;;;;;;;5.23;4.93;;;;;;;;;;6215663;28;20022;-79
2023/03/01 05:11:08;;;;;;;4.87;4.57;;;;;;;;;;6211256;28;20513;-79
2023/03/01 05:14:09;;;;;;;26.60;5.75;;;;;;;;;;6218493;28;20042;-81
2023/03/01 05:17:09;;;;;;;6.23;5.90;;;;;;;;;;6207350;28;20018;-80
2023/03/01 05:20:10;;;;;;;5.47;5.03;;;;;;;;;;6199651;28;20033;-79
2023/03/01 05:23:13;;;;;;;7.15;6.85;;;;;;;;;;6219824;28;20396;-80
2023/03/01 05:26:13;;;;;;;9.98;9.30;;;;;;;;;;6213091;28;20013;-79
2023/03/01 05:29:14;;;;;;;10.03;9.03;;;;;;;;;;6209021;28;20503;-79
2023/03/01 05:32:15;;;;;;;9.57;8.80;;;;;;;;;;6221354;28;20014;-80
2023/03/01 05:35:18;;;;;;;6.25;5.68;;;;;;;;;;6213646;28;20028;-79
2023/03/01 05:38:20;;;;;;;11.10;8.90;;;;;;;;;;6213859;28;20077;-81
2023/03/01 05:41:20;;;;;;;;;;;;;;;;;;6212856;28;20113;-79
2023/03/01 05:44:21;;;;;;;6.53;6.05;;;;;;;;;;6220447;28;19913;-80
2023/03/01 05:47:22;;;;;;;;;;;;;;;;;;6230598;28;20064;-80
2023/03/01 05:50:28;;;;;;;11.45;10.68;;;;;;;;;;6224157;28;19913;-79
2023/03/01 05:53:28;;;;;;;8.68;7.82;;;;;;;;;;6207321;28;20060;-81
2023/03/01 05:56:33;;;;;;;10.32;9.00;;;;;;;;;;6226334;28;20070;-81
2023/03/01 05:59:34;;;;;;;5.32;4.57;;;;;;;;;;6218280;28;20030;-81
2023/03/01 06:02:35;;;;;;;10.20;8.80;;;;;;;;;;6213333;28;20068;-80
2023/03/01 06:05:35;;;;;;;9.73;8.97;;;;;;;;;;6234948;28;20731;-79
2023/03/01 06:08:36;;;;;;;7.73;7.07;;;;;;;;;;6227878;28;20399;-81
2023/03/01 06:11:43;;;;;;;10.95;9.15;;;;;;;;;;6212334;28;20554;-81
2023/03/01 06:14:47;;;;;;;6.43;6.03;;;;;;;;;;6235083;28;20056;-82
2023/03/01 06:17:48;;;;;;;18.73;17.33;;;;;;;;;;6211701;28;20026;-83
2023/03/01 06:20:55;;;;;;;14.57;12.90;;;;;;;;;;6231736;28;20029;-83
2023/03/01 06:23:55;;;;;;;18.38;16.23;;;;;;;;;;6209191;28;20064;-82
2023/03/01 06:26:55;;;;;;;16.03;12.03;;;;;;;;;;6218496;28;20030;-80
2023/03/01 06:29:56;;;;;;;13.57;12.13;;;;;;;;;;6228375;28;20109;-79
2023/03/01 06:33:00;;;;;;;19.93;18.27;;;;;;;;;;6221774;28;20025;-79
2023/03/01 06:36:00;;;;;;;19.23;16.65;;;;;;;;;;6232546;28;20018;-80
2023/03/01 06:39:00;;;;;;;31.17;15.77;;;;;;;;;;6221643;28;20494;-79
2023/03/01 06:42:04;;;;;;;15.23;14.10;;;;;;;;;;6225172;28;20108;-79
2023/03/01 06:45:05;;;;;;;17.63;15.68;;;;;;;;;;6224475;28;20591;-79
2023/03/01 06:48:07;;;;;;;22.58;14.95;;;;;;;;;;6225679;28;20387;-80
2023/03/01 06:51:08;;;;;;;11.73;10.70;;;;;;;;;;6216336;28;20033;-80
2023/03/01 06:54:08;;;;;;;14.23;12.85;;;;;;;;;;6225001;28;20504;-79
2023/03/01 06:57:08;;;;;;;30.85;20.55;;;;;;;;;;6241596;28;20030;-79
2023/03/01 07:00:09;;;;;;;21.33;19.13;;;;;;;;;;6221367;28;20989;-80
2023/03/01 07:03:09;;;;;;;30.23;22.07;;;;;;;;;;6228842;28;20052;-80
2023/03/01 07:06:09;;;;;;;23.90;13.93;;;;;;;;;;6227053;28;20387;-80
2023/03/01 07:09:10;;;;;;;19.33;17.17;;;;;;;;;;6224174;28;20384;-82
2023/03/01 07:12:10;;;;;;;42.70;19.97;;;;;;;;;;6224593;28;20029;-85
2023/03/01 07:15:12;;;;;;;23.23;17.80;;;;;;;;;;6229918;28;20041;-87
2023/03/01 07:18:13;;;;;;;15.15;13.48;;;;;;;;;;6240018;28;20039;-86
2023/03/01 07:21:14;;;;;;;16.10;14.67;;;;;;;;;;6234416;28;20025;-84
2023/03/01 07:24:14;;;;;;;25.03;22.50;;;;;;;;;;6238697;28;20092;-84
2023/03/01 07:27:14;;;;;;;18.87;11.00;;;;;;;;;;6219527;28;20028;-83
2023/03/01 07:30:15;;;;;;;17.03;11.67;;;;;;;;;;6224789;28;20018;-82
2023/03/01 07:33:16;;;;;;;11.50;10.50;;;;;;;;;;6233289;28;20148;-82
2023/03/01 07:36:16;;;;;;;29.23;14.43;;;;;;;;;;6232950;28;20053;-83
2023/03/01 07:39:16;;;;;;;11.30;9.27;;;;;;;;;;6229717;28;20025;-83
2023/03/01 07:42:17;;;;;;;25.90;12.77;;;;;;;;;;6233328;28;20108;-83
2023/03/01 07:45:19;;;;;;;14.40;13.13;;;;;;;;;;6237661;28;20025;-82
2023/03/01 07:48:20;;;;;;;16.38;8.43;;;;;;;;;;6229752;28;20028;-84
2023/03/01 07:51:20;;;;;;;13.97;9.13;;;;;;;;;;6233708;28;20053;-84
2023/03/01 07:54:20;;;;;;;14.27;9.33;;;;;;;;;;6223327;28;20046;-84
2023/03/01 07:57:20;;;;;;;5.73;5.20;;;;;;;;;;6228254;28;20033;-84
2023/03/01 08:00:21;;;;;;;16.42;12.38;;;;;;;;;;6234681;28;20041;-84
2023/03/01 08:03:21;;;;;;;14.67;11.97;;;;;;;;;;6227711;28;20090;-85
2023/03/01 08:06:22;;;;;;;22.00;13.17;;;;;;;;;;6237097;28;20025;-84
2023/03/01 08:09:22;;;;;;;23.97;16.47;;;;;;;;;;6223095;28;20040;-84
2023/03/01 08:12:22;;;;;;;19.20;13.17;;;;;;;;;;6230117;28;20060;-83
2023/03/01 08:15:22;;;;;;;25.13;17.10;;;;;;;;;;6210012;28;20460;-83
2023/03/01 08:18:24;;;;;;;21.83;12.43;;;;;;;;;;6227409;28;20021;-82
2023/03/01 08:21:25;;;;;;;20.98;12.40;;;;;;;;;;6227010;28;20489;-82
2023/03/01 08:24:25;;;;;;;17.23;12.50;;;;;;;;;;6221564;28;20024;-81
2023/03/01 08:27:26;;;;;;;15.83;10.67;;;;;;;;;;6230509;28;20083;-81
2023/03/01 08:30:26;;;;;;;19.65;11.80;;;;;;;;;;6224000;28;20029;-80
2023/03/01 08:33:26;;;;;;;16.13;12.80;;;;;;;;;;6232776;28;20063;-80
2023/03/01 08:36:28;;;;;;;10.50;8.67;;;;;;;;;;6232410;28;20110;-80
2023/03/01 08:39:28;;;;;;;20.83;13.52;;;;;;;;;;6219275;28;20057;-80
2023/03/01 08:42:28;;;;;;;28.07;12.00;;;;;;;;;;6234329;28;20018;-79
2023/03/01 08:45:30;;;;;;;20.87;11.77;;;;;;;;;;6232221;28;20022;-79
2023/03/01 08:48:30;;;;;;;19.55;9.25;;;;;;;;;;6232603;28;20022;-79
2023/03/01 08:51:32;;;;;;;17.53;6.87;;;;;;;;;;6221527;28;20026;-78
2023/03/01 08:54:35;;;;;;;10.32;6.75;;;;;;;;;;6224721;28;20112;-78
2023/03/01 08:57:35;;;;;;;9.95;6.45;;;;;;;;;;6231143;28;20036;-78
2023/03/01 09:00:35;;;;;;;10.17;5.63;;;;;;;;;;6223381;28;20018;-79
2023/03/01 09:03:36;;;;;;;8.27;7.47;;;;;;;;;;6225690;28;20385;-79
2023/03/01 09:06:37;;;;;;;10.87;9.07;;;;;;;;;;6204913;28;20056;-78
2023/03/01 09:09:37;;;;;;;14.23;7.07;;;;;;;;;;6230578;28;20383;-78
2023/03/01 09:12:38;;;;;;;9.87;7.37;;;;;;;;;;6232941;28;20026;-78
2023/03/01 09:15:40;;;;;;;9.18;7.97;;;;;;;;;;6230165;28;20018;-78
2023/03/01 09:18:40;;;;;;;8.88;8.18;;;;;;;;;;6227832;28;20017;-78
2023/03/01 09:21:51;;;;;;;12.53;8.57;;;;;;;;;;6209233;28;20041;-78
2023/03/01 09:24:52;;;;;;;10.18;7.28;;;;;;;;;;6222030;28;20021;-78
2023/03/01 09:27:52;;;;;;;6.03;5.63;;;;;;;;;;6196113;28;20105;-78
2023/03/01 09:30:52;;;;;;;7.13;6.53;;;;;;;;;;6223409;28;20032;-78
2023/03/01 09:33:54;;;;;;;9.53;7.67;;;;;;;;;;6212318;28;20034;-79
2023/03/01 09:36:54;;;;;;;9.38;4.90;;;;;;;;;;6229783;28;20025;-79
2023/03/01 09:39:55;;;;;;;6.03;3.53;;;;;;;;;;6230456;28;20052;-78
2023/03/01 09:43:08;;;;;;;4.93;4.53;;;;;;;;;;6219994;28;20030;-79
2023/03/01 09:46:10;;;;;;;3.60;3.25;;;;;;;;;;6224557;28;20032;-79
2023/03/01 09:49:22;;;;;;;7.57;6.85;;;;;;;;;;6200531;28;20117;-78
2023/03/01 09:52:28;;;;;;;9.57;4.68;;;;;;;;;;6228916;28;20031;-78
2023/03/01 09:55:37;;;;;;;8.10;4.85;;;;;;;;;;6235825;28;20530;-79
2023/03/01 09:58:38;;;;;;;12.43;6.75;;;;;;;;;;6212456;28;20026;-79
2023/03/01 10:01:43;;;;;;;4.90;4.55;;;;;;;;;;6216114;28;20040;-79
2023/03/01 10:04:48;;;;;;;5.53;4.97;;;;;;;;;;6227220;28;20453;-79
2023/03/01 10:08:14;;;;;;;15.80;5.35;;;;;;;;;;6220735;28;20014;-79
2023/03/01 10:11:25;;;;;;;4.70;4.35;;;;;;;;;;6155133;28;20037;-79
2023/03/01 10:14:28;;;;;;;9.82;7.20;;;;;;;;;;6231748;28;20014;-79
2023/03/01 10:17:37;;;;;;;27.13;6.63;;;;;;;;;;6222764;28;20120;-79
2023/03/01 10:20:43;;;;;;;11.68;6.43;;;;;;;;;;6230776;28;20548;-79
2023/03/01 10:23:43;;;;;;;8.85;7.38;;;;;;;;;;6234162;28;20032;-79
2023/03/01 10:26:55;;;;;;;8.07;5.67;;;;;;;;;;6240525;28;20014;-79
2023/03/01 10:30:11;;;;;;;6.88;6.22;;;;;;;;;;6215604;28;20026;-79
2023/03/01 10:33:20;;;;;;;11.30;6.95;;;;;;;;;;6214977;28;20026;-79
2023/03/01 10:36:21;;;;;;;3.70;3.40;;;;;;;;;;6228625;28;20093;-79
2023/03/01 10:39:22;;;;;;;4.43;4.03;;;;;;;;;;6224464;28;20066;-79
2023/03/01 10:42:28;;;;;;;3.40;3.10;;;;;;;;;;6231115;28;20017;-78
2023/03/01 10:45:31;;;;;;;7.03;5.47;;;;;;;;;;6196661;28;20021;-78
2023/03/01 10:48:32;;;;;;;6.40;5.40;;;;;;;;;;6234236;28;20029;-79
2023/03/01 10:51:33;;;;;;;10.38;5.30;;;;;;;;;;6233352;28;20160;-79
2023/03/01 10:54:33;;;;;;;2.67;2.37;;;;;;;;;;6207434;28;20054;-78
2023/03/01 10:57:36;;;;;;;6.03;3.90;;;;;;;;;;6226268;28;20025;-78
2023/03/01 11:00:45;;;;;;;4.90;4.40;;;;;;;;;;6227395;28;20097;-78
2023/03/01 11:04:02;;;;;;;9.18;6.03;;;;;;;;;;6221708;28;20017;-78
2023/03/01 11:07:02;;;;;;;5.72;5.03;;;;;;;;;;6233128;28;20018;-79
2023/03/01 11:10:11;;;;;;;7.47;5.90;;;;;;;;;;6230721;28;20613;-79
2023/03/01 11:13:18;;;;;;;12.45;7.78;;;;;;;;;;6233770;28;20084;-78
2023/03/01 11:16:32;;;;;;;7.30;5.68;;;;;;;;;;6194201;28;20048;-78
2023/03/01 11:19:33;;;;;;;4.32;3.97;;;;;;;;;;6222912;28;20041;-78
2023/03/01 11:22:34;;;;;;;6.43;4.53;;;;;;;;;;6222227;28;20105;-78
2023/03/01 11:25:36;;;;;;;7.50;6.82;;;;;;;;;;6230127;28;20021;-79
2023/03/01 11:28:38;;;;;;;5.30;3.95;;;;;;;;;;6224435;28;20469;-79
2023/03/01 11:31:41;;;;;;;5.50;4.05;;;;;;;;;;6231275;28;20050;-79
2023/03/01 11:34:49;;;;;;;10.05;6.05;;;;;;;;;;6235111;28;20064;-79
2023/03/01 11:37:58;;;;;;;4.43;3.60;;;;;;;;;;6225503;28;20030;-79
2023/03/01 11:41:07;;;;;;;3.35;3.15;;;;;;;;;;6224562;28;20037;-80
2023/03/01 11:44:17;;;;;;;5.93;5.38;;;;;;;;;;6225588;28;20046;-79
2023/03/01 11:47:27;;;;;;;6.55;4.35;;;;;;;;;;6230369;28;20104;-79
2023/03/01 11:50:41;;;;;;;2.42;2.25;;;;;;;;;;6227173;28;20387;-79
2023/03/01 11:53:50;;;;;;;2.53;2.38;;;;;;;;;;6220581;28;20542;-79
2023/03/01 11:56:54;;;;;;;5.45;4.95;;;;;;;;;;6234268;28;20029;-79
2023/03/01 12:00:02;;;;;;;3.40;3.10;;;;;;;;;;6232829;28;20449;-79
2023/03/01 12:03:09;;;;;;;3.95;2.90;;;;;;;;;;6232448;28;20468;-79
2023/03/01 12:06:11;;;;;;;5.95;4.53;;;;;;;;;;6238397;28;20029;-79
2023/03/01 12:09:11;;;;;;;7.88;4.43;;;;;;;;;;6229876;28;20022;-79
2023/03/01 12:12:20;;;;;;;6.00;4.60;;;;;;;;;;6226178;28;20068;-79
2023/03/01 12:15:42;;;;;;;4.47;2.78;;;;;;;;;;6234829;28;20036;-79
2023/03/01 12:18:52;;;;;;;3.70;3.08;;;;;;;;;;6215278;28;20400;-78
2023/03/01 12:22:06;;;;;;;3.90;3.65;;;;;;;;;;6218164;28;20053;-78
2023/03/01 12:25:06;;;;;;;3.72;3.22;;;;;;;;;;6232883;28;20021;-79
2023/03/01 12:28:17;;;;;;;6.73;3.33;;;;;;;;;;6230375;28;20107;-79
2023/03/01 12:31:28;;;;;;;19.20;5.38;;;;;;;;;;6223887;28;20369;-79
2023/03/01 12:34:40;;;;;;;5.20;4.75;;;;;;;;;;6231555;28;20021;-79
2023/03/01 12:37:53;;;;;;;5.90;2.88;;;;;;;;;;6233855;28;20048;-79
2023/03/01 12:41:13;;;;;;;2.83;2.67;;;;;;;;;;6233296;28;20057;-79
2023/03/01 12:44:23;;;;;;;9.65;4.50;;;;;;;;;;6208479;28;20022;-78
2023/03/01 12:47:44;;;;;;;5.10;3.58;;;;;;;;;;6232215;28;20021;-79
2023/03/01 12:51:04;;;;;;;5.32;2.30;;;;;;;;;;6228774;28;20758;-78
2023/03/01 12:54:11;;;;;;;4.68;3.42;;;;;;;;;;6228709;28;20051;-79
2023/03/01 12:57:12;;;;;;;5.80;2.65;;;;;;;;;;6224424;28;20026;-76
2023/03/01 13:00:28;;;;;;;2.25;2.13;;;;;;;;;;6225639;28;20022;-79
2023/03/01 13:03:31;;;;;;;4.93;4.50;;;;;;;;;;6226330;28;20029;-79
2023/03/01 13:06:43;;;;;;;2.42;2.33;;;;;;;;;;6230676;28;20060;-79
2023/03/01 13:09:43;;;;;;;7.85;5.70;;;;;;;;;;6230605;28;20073;-78
2023/03/01 13:13:02;;;;;;;6.97;5.70;;;;;;;;;;6233847;28;20022;-77
2023/03/01 13:16:21;;;;;;;4.03;3.45;;;;;;;;;;6219051;28;20327;-80
2023/03/01 13:19:25;;;;;;;6.18;4.40;;;;;;;;;;6223870;28;20026;-79
2023/03/01 13:22:31;;;;;;;2.17;2.05;;;;;;;;;;6229930;28;20488;-79
2023/03/01 13:25:31;;;;;;;4.80;3.08;;;;;;;;;;6232703;28;20392;-78
2023/03/01 13:28:31;;;;;;;5.50;5.00;;;;;;;;;;6224921;28;20025;-79
2023/03/01 13:31:31;;;;;;;1.85;1.65;;;;;;;;;;6226169;28;20045;-79
2023/03/01 13:34:46;;;;;;;1.92;1.83;;;;;;;;;;6234887;28;20010;-77
2023/03/01 13:37:46;;;;;;;4.40;2.92;;;;;;;;;;6235897;28;20546;-78
2023/03/01 13:40:46;;;;;;;2.77;2.57;;;;;;;;;;6209680;28;20026;-77
2023/03/01 13:43:53;;;;;;;2.13;2.03;;;;;;;;;;6220684;28;20022;-78
2023/03/01 13:47:13;;;;;;;5.28;4.20;;;;;;;;;;6235856;28;20088;-79
2023/03/01 13:50:21;;;;;;;1.48;1.33;;;;;;;;;;6225193;28;20018;-78
2023/03/01 13:57:21;;;;;;;3.92;2.28;;;;;;;;;;6214696;28;20109;-79
2023/03/01 14:00:24;;;;;;;4.25;2.15;;;;;;;;;;6225432;28;20024;-79
2023/03/01 14:03:27;;;;;;;2.13;1.58;;;;;;;;;;6206430;28;20072;-79
2023/03/01 14:06:31;;;;;;;1.20;1.10;;;;;;;;;;6229802;28;20021;-78
2023/03/01 14:09:32;;;;;;;2.50;2.15;;;;;;;;;;6219292;28;20026;-78
2023/03/01 14:12:36;;;;;;;3.47;1.60;;;;;;;;;;6226448;28;20319;-79
2023/03/01 14:15:43;;;;;;;2.00;1.77;;;;;;;;;;6222652;28;20210;-79
2023/03/01 14:19:06;;;;;;;4.22;2.35;;;;;;;;;;6227997;28;20137;-78
2023/03/01 14:22:19;;;;;;;2.17;2.08;;;;;;;;;;6209254;28;20034;-78
2023/03/01 14:25:21;;;;;;;3.20;1.60;;;;;;;;;;6239782;28;20022;-78
2023/03/01 14:28:26;;;;;;;5.22;2.25;;;;;;;;;;6240260;28;20108;-78
2023/03/01 14:31:35;;;;;;;6.88;3.50;;;;;;;;;;6209705;28;20025;-78
2023/03/01 14:34:35;;;;;;;3.03;2.65;;;;;;;;;;6222643;28;20088;-78
2023/03/01 14:37:36;;;;;;;2.93;2.67;;;;;;;;;;6228652;28;20038;-78
2023/03/01 14:40:40;;;;;;;1.00;1.00;;;;;;;;;;6236248;28;20045;-78
2023/03/01 14:43:45;;;;;;;1.08;1.05;;;;;;;;;;6224561;28;20471;-78
2023/03/01 14:46:47;;;;;;;1.75;1.65;;;;;;;;;;6223618;28;20075;-78
2023/03/01 14:49:48;;;;;;;1.35;1.35;;;;;;;;;;6234419;28;20018;-78
2023/03/01 14:52:50;;;;;;;0.57;0.57;;;;;;;;;;6224162;28;20033;-78
2023/03/01 14:55:52;;;;;;;2.05;1.88;;;;;;;;;;6236100;28;20070;-78
2023/03/01 14:58:53;;;;;;;1.52;1.42;;;;;;;;;;6226805;28;20403;-78
2023/03/01 15:01:55;;;;;;;0.77;0.77;;;;;;;;;;6231128;28;20403;-78
2023/03/01 15:04:57;;;;;;;1.77;1.17;;;;;;;;;;6237754;28;20029;-78
2023/03/01 15:08:02;;;;;;;2.60;2.40;;;;;;;;;;6238072;28;20079;-78
2023/03/01 15:11:25;;;;;;;3.65;1.27;;;;;;;;;;6240670;28;20072;-79
2023/03/01 15:14:26;;;;;;;1.58;1.48;;;;;;;;;;6222268;28;20030;-78
2023/03/01 15:17:34;;;;;;;3.33;2.22;;;;;;;;;;6246740;28;20052;-78
2023/03/01 15:20:35;;;;;;;3.42;2.67;;;;;;;;;;6237802;28;20044;-78
2023/03/01 15:23:49;;;;;;;1.10;1.10;;;;;;;;;;6230563;28;20020;-78
2023/03/01 15:26:54;;;;;;;1.65;1.60;;;;;;;;;;6241302;28;20014;-79
2023/03/01 15:29:59;;;;;;;4.90;1.77;;;;;;;;;;6232576;28;20144;-78
2023/03/01 15:33:46;;;;;;;2.58;2.38;;;;;;;;;;6235323;28;20041;-79
2023/03/01 15:36:50;;;;;;;4.53;2.72;;;;;;;;;;6153152;29;20027;-79
2023/03/01 15:39:54;;;;;;;1.73;1.60;;;;;;;;;;6148020;28;20026;-78
2023/03/01 15:42:57;;;;;;;1.40;1.30;;;;;;;;;;6216053;28;20014;-81
2023/03/01 15:45:59;;;;;;;3.42;3.22;;;;;;;;;;6223513;28;20454;-79
2023/03/01 15:49:00;;;;;;;;;;;;;;;;;;6230052;28;20022;-78
2023/03/01 15:52:01;;;;;;;0.63;0.60;;;;;;;;;;6237341;28;19955;-78
2023/03/01 15:55:04;;;;;;;7.80;3.90;;;;;;;;;;6228899;28;20554;-78
2023/03/01 15:58:11;;;;;;;0.70;0.70;;;;;;;;;;6218747;28;20038;-79
2023/03/01 16:01:19;;;;;;;0.93;0.93;;;;;;;;;;6229256;28;20026;-78
2023/03/01 16:04:23;;;;;;;0.82;0.82;;;;;;;;;;6235613;28;20025;-78
2023/03/01 16:07:24;;;;;;;2.35;2.15;;;;;;;;;;6235331;28;20554;-78
2023/03/01 16:10:33;;;;;;;2.07;1.97;;;;;;;;;;6205600;28;20026;-78
2023/03/01 16:13:33;;;;;;;1.75;1.65;;;;;;;;;;6228983;28;20029;-79
2023/03/01 16:16:35;;;;;;;0.75;0.75;;;;;;;;;;6222005;28;20049;-78
2023/03/01 16:19:38;;;;;;;0.90;0.90;;;;;;;;;;6221458;28;20018;-80
2023/03/01 16:22:39;;;;;;;1.55;1.45;;;;;;;;;;6214146;28;20109;-78
2023/03/01 16:25:41;;;;;;;6.83;1.93;;;;;;;;;;6230295;28;20034;-78
2023/03/01 16:28:42;;;;;;;;;;;;;;;;;;6234468;28;20026;-78
2023/03/01 16:31:43;;;;;;;1.45;1.20;;;;;;;;;;6218653;28;19910;-78
2023/03/01 16:34:44;;;;;;;3.50;3.20;;;;;;;;;;6227769;28;20029;-78
2023/03/01 16:37:45;;;;;;;1.90;1.73;;;;;;;;;;6206963;28;20037;-77
2023/03/01 16:40:47;;;;;;;1.40;1.30;;;;;;;;;;6232882;28;20184;-77
2023/03/01 16:43:47;;;;;;;1.85;1.75;;;;;;;;;;6223474;28;20056;-78
2023/03/01 16:46:48;;;;;;;1.10;1.03;;;;;;;;;;6227644;28;20164;-77
2023/03/01 16:49:52;;;;;;;7.60;6.00;;;;;;;;;;6218300;28;20021;-77
2023/03/01 16:52:53;;;;;;;5.80;4.40;;;;;;;;;;6218056;28;20506;-77
2023/03/01 16:55:57;;;;;;;1.13;1.13;;;;;;;;;;6197558;28;20014;-77
2023/03/01 16:58:57;;;;;;;1.95;1.85;;;;;;;;;;6191298;28;20019;-77
2023/03/01 17:01:57;;;;;;;0.45;0.45;;;;;;;;;;6200507;28;20057;-76
2023/03/01 17:04:57;;;;;;;1.13;1.13;;;;;;;;;;6204213;28;20022;-78
2023/03/01 17:07:59;;;;;;;2.03;1.88;;;;;;;;;;6208255;28;20034;-78
2023/03/01 17:10:59;;;;;;;;;;;;;;;;;;6195822;28;20110;-78
2023/03/01 17:13:59;;;;;;;0.43;0.43;;;;;;;;;;6205952;28;19910;-78
2023/03/01 17:17:02;;;;;;;0.93;0.93;;;;;;;;;;6211052;28;20377;-77
2023/03/01 17:20:02;;;;;;;1.27;1.27;;;;;;;;;;6207689;28;20056;-76
2023/03/01 17:23:03;;;;;;;2.33;2.23;;;;;;;;;;6207351;28;20042;-77
2023/03/01 17:26:03;;;;;;;2.13;1.93;;;;;;;;;;6201315;28;20037;-77
2023/03/01 17:29:05;;;;;;;1.17;1.17;;;;;;;;;;6206798;28;20027;-78
2023/03/01 17:32:06;;;;;;;3.78;2.70;;;;;;;;;;6212099;28;20384;-78
2023/03/01 17:35:06;;;;;;;3.30;3.10;;;;;;;;;;6194770;28;20026;-78
2023/03/01 17:38:07;;;;;;;3.30;3.10;;;;;;;;;;6203150;28;20034;-77
2023/03/01 17:41:09;;;;;;;6.33;5.73;;;;;;;;;;6187975;28;20042;-77
2023/03/01 17:44:09;;;;;;;2.35;2.20;;;;;;;;;;6212892;28;20018;-79
2023/03/01 17:47:10;;;;;;;4.10;3.83;;;;;;;;;;6217791;28;20457;-76
2023/03/01 17:50:11;;;;;;;8.37;3.27;;;;;;;;;;6202781;28;20109;-76
2023/03/01 17:53:12;;;;;;;3.60;3.25;;;;;;;;;;6214094;28;20036;-78
2023/03/01 17:56:12;;;;;;;5.77;5.37;;;;;;;;;;6221805;28;20484;-77
2023/03/01 17:59:13;;;;;;;3.63;3.37;;;;;;;;;;6234036;28;20422;-76
2023/03/01 18:02:13;;;;;;;4.43;4.23;;;;;;;;;;6232001;28;20068;-78
2023/03/01 18:05:13;;;;;;;5.43;4.93;;;;;;;;;;6237637;28;20534;-78
2023/03/01 18:08:13;;;;;;;3.47;3.33;;;;;;;;;;6237807;28;20021;-77
2023/03/01 18:11:14;;;;;;;8.00;7.20;;;;;;;;;;6202408;28;20042;-77
2023/03/01 18:14:14;;;;;;;3.27;3.07;;;;;;;;;;6221718;28;20031;-77
2023/03/01 18:17:15;;;;;;;4.00;3.80;;;;;;;;;;6222990;28;20024;-77
2023/03/01 18:20:17;;;;;;;12.50;5.80;;;;;;;;;;6219616;28;20026;-77